Time;durP1;ratioP1;P1;durP2;ratioP2;P2;SDS_P1;SDS_P2;PMS_P1;PMS_P2;Temp;Humidity;BMP_temperature;BMP_pressure;BME280_temperature;BME280_humidity;BME280_pressure;Samples;Min_cycle;Max_cycle;Signal;HPM_P1;HPM_P2
2023/03/28 00:00:42;;;;;;;6.00;4.80;;;5.90;99.90;;;;;;5027064;28;21240;-60
2023/03/28 00:03:08;;;;;;;8.50;5.20;;;6.00;99.90;;;;;;5032240;28;20191;-61
2023/03/28 00:05:33;;;;;;;8.13;5.00;;;6.00;99.90;;;;;;5026471;28;20189;-61
2023/03/28 00:07:59;;;;;;;7.67;5.80;;;5.90;99.90;;;;;;5023558;28;20968;-61
2023/03/28 00:10:26;;;;;;;7.67;4.93;;;5.80;99.90;;;;;;5025331;28;20284;-61
2023/03/28 00:12:52;;;;;;;9.47;5.33;;;5.70;99.90;;;;;;5026107;28;20212;-61
2023/03/28 00:15:17;;;;;;;10.67;5.63;;;5.70;99.90;;;;;;5024372;28;20890;-61
2023/03/28 00:17:43;;;;;;;6.43;5.27;;;5.60;99.90;;;;;;5025239;28;20553;-61
2023/03/28 00:20:10;;;;;;;7.83;5.40;;;5.50;99.90;;;;;;5027955;28;20196;-61
2023/03/28 00:22:37;;;;;;;8.20;5.60;;;5.50;99.90;;;;;;5027907;28;20674;-61
2023/03/28 00:25:05;;;;;;;8.67;5.40;;;5.50;99.90;;;;;;5030988;28;20474;-61
2023/03/28 00:27:32;;;;;;;11.47;5.83;;;5.50;99.90;;;;;;5033339;28;20467;-61
2023/03/28 00:29:58;;;;;;;7.43;5.40;;;5.50;99.90;;;;;;5023292;28;20448;-61
2023/03/28 00:32:24;;;;;;;7.90;5.80;;;5.50;99.90;;;;;;5025096;28;20466;-61
2023/03/28 00:34:49;;;;;;;8.50;6.00;;;5.60;99.90;;;;;;5032564;28;20476;-61
2023/03/28 00:37:16;;;;;;;9.63;5.80;;;5.60;99.90;;;;;;5024602;28;20212;-61
2023/03/28 00:39:48;;;;;;;8.87;7.13;;;5.50;99.90;;;;;;5027389;28;20495;-61
2023/03/28 00:42:19;;;;;;;8.50;5.53;;;5.50;99.90;;;;;;5024094;28;20532;-62
2023/03/28 00:44:56;;;;;;;5.77;5.00;;;5.50;99.90;;;;;;5027520;28;20547;-61
2023/03/28 00:47:40;;;;;;;8.20;5.67;;;5.50;99.90;;;;;;5022953;28;20472;-61
2023/03/28 00:50:18;;;;;;;5.33;4.80;;;5.60;99.90;;;;;;5026415;28;20438;-61
2023/03/28 00:52:51;;;;;;;6.60;4.93;;;5.60;99.90;;;;;;5025004;28;20524;-60
2023/03/28 00:55:25;;;;;;;7.57;5.40;;;5.50;99.90;;;;;;5024566;28;20430;-61
2023/03/28 00:57:52;;;;;;;7.13;5.60;;;5.50;99.90;;;;;;5023065;28;20798;-61
2023/03/28 01:00:19;;;;;;;9.00;5.10;;;5.50;99.90;;;;;;5021269;28;20487;-61
2023/03/28 01:02:51;;;;;;;6.30;4.63;;;5.50;99.90;;;;;;5021424;28;20442;-61
2023/03/28 01:05:24;;;;;;;6.17;5.07;;;5.40;99.90;;;;;;5027750;28;20443;-61
2023/03/28 01:07:54;;;;;;;8.73;5.43;;;5.40;99.90;;;;;;5030297;28;20994;-61
2023/03/28 01:10:21;;;;;;;8.07;5.60;;;5.30;99.90;;;;;;5021727;28;21150;-61
2023/03/28 01:12:47;;;;;;;5.73;4.80;;;5.30;99.90;;;;;;5029614;28;20469;-61
2023/03/28 01:15:13;;;;;;;5.10;4.30;;;5.40;99.90;;;;;;5024517;28;20804;-61
2023/03/28 01:17:40;;;;;;;12.80;5.10;;;5.40;99.90;;;;;;5026808;28;20462;-61
2023/03/28 01:20:34;;;;;;;7.47;5.00;;;5.30;99.90;;;;;;5027107;28;20191;-61
2023/03/28 01:23:21;;;;;;;6.37;4.70;;;5.30;99.90;;;;;;5027862;28;20970;-61
2023/03/28 01:25:50;;;;;;;7.13;4.77;;;5.40;99.90;;;;;;5026097;28;20439;-61
2023/03/28 01:28:42;;;;;;;5.50;4.00;;;5.30;99.90;;;;;;5027045;28;20435;-61
2023/03/28 01:31:31;;;;;;;6.90;4.67;;;5.20;99.90;;;;;;5029850;28;20458;-61
2023/03/28 01:34:14;;;;;;;5.47;4.10;;;5.10;99.90;;;;;;5034511;28;20423;-60
2023/03/28 01:37:02;;;;;;;9.00;4.83;;;5.00;99.90;;;;;;5030396;28;20561;-61
2023/03/28 01:40:09;;;;;;;5.13;4.07;;;5.00;99.90;;;;;;5031952;28;20437;-61
2023/03/28 01:42:43;;;;;;;5.47;4.40;;;4.80;99.90;;;;;;5030197;28;20487;-61
2023/03/28 01:45:21;;;;;;;6.77;4.67;;;4.70;99.90;;;;;;5030316;28;20455;-61
2023/03/28 01:48:05;;;;;;;6.17;4.50;;;4.90;99.90;;;;;;5033434;28;20529;-61
2023/03/28 01:50:48;;;;;;;6.50;4.10;;;4.90;99.90;;;;;;5027753;28;20449;-61
2023/03/28 01:53:15;;;;;;;7.80;4.63;;;4.90;99.90;;;;;;5026049;28;20446;-61
2023/03/28 01:56:21;;;;;;;8.00;4.40;;;4.90;99.90;;;;;;5028755;28;21048;-61
2023/03/28 01:59:14;;;;;;;5.40;4.10;;;4.90;99.90;;;;;;5026783;28;20446;-61
2023/03/28 02:02:06;;;;;;;7.33;4.20;;;4.90;99.90;;;;;;5025051;28;20485;-61
2023/03/28 02:04:35;;;;;;;6.57;4.40;;;4.90;99.90;;;;;;5028381;28;20447;-61
2023/03/28 02:07:02;;;;;;;5.47;4.53;;;4.90;99.90;;;;;;5030440;28;20560;-61
2023/03/28 02:09:31;;;;;;;7.13;4.60;;;4.90;99.90;;;;;;5026122;28;20512;-61
2023/03/28 02:12:09;;;;;;;8.37;5.13;;;4.90;99.90;;;;;;5028695;28;20463;-62
2023/03/28 02:14:42;;;;;;;6.30;4.33;;;4.90;99.90;;;;;;5026324;28;20439;-61
2023/03/28 02:17:14;;;;;;;12.57;5.03;;;4.90;99.90;;;;;;5028845;28;20472;-61
2023/03/28 02:19:45;;;;;;;7.00;5.00;;;4.90;99.90;;;;;;5021927;28;20795;-61
2023/03/28 02:22:43;;;;;;;8.10;4.47;;;4.90;99.90;;;;;;5027365;28;21189;-61
2023/03/28 02:25:09;;;;;;;7.30;4.37;;;4.90;99.90;;;;;;5033179;28;20835;-61
2023/03/28 02:27:38;;;;;;;5.20;4.33;;;5.00;99.90;;;;;;5030311;28;20463;-61
2023/03/28 02:30:06;;;;;;;6.00;4.30;;;4.90;99.90;;;;;;5030476;28;20239;-61
2023/03/28 02:32:32;;;;;;;6.77;5.00;;;5.00;99.90;;;;;;5033902;28;20469;-61
2023/03/28 02:34:59;;;;;;;6.63;4.70;;;5.00;99.90;;;;;;5026138;28;20442;-61
2023/03/28 02:37:25;;;;;;;9.13;4.37;;;4.80;99.90;;;;;;5026952;28;21081;-61
2023/03/28 02:39:57;;;;;;;6.47;4.70;;;4.70;99.90;;;;;;5032520;28;20471;-60
2023/03/28 02:42:35;;;;;;;5.23;4.10;;;4.70;99.90;;;;;;5032163;28;20663;-60
2023/03/28 02:45:19;;;;;;;7.00;4.77;;;4.70;99.90;;;;;;5032139;28;20500;-61
2023/03/28 02:48:03;;;;;;;5.13;4.50;;;4.60;99.90;;;;;;5028449;28;20490;-60
2023/03/28 02:50:42;;;;;;;5.13;4.57;;;4.60;99.90;;;;;;5025495;28;20451;-61
2023/03/28 02:53:26;;;;;;;6.80;5.20;;;4.60;99.90;;;;;;5026939;28;20446;-61
2023/03/28 02:56:10;;;;;;;12.30;4.70;;;4.60;99.90;;;;;;5025684;28;21093;-61
2023/03/28 02:58:46;;;;;;;7.20;5.53;;;4.60;99.90;;;;;;5028501;28;20446;-61
2023/03/28 03:01:13;;;;;;;8.90;4.60;;;4.70;99.90;;;;;;5028971;28;20433;-61
2023/03/28 03:03:41;;;;;;;7.80;4.90;;;4.70;99.90;;;;;;5028949;28;21041;-61
2023/03/28 03:06:07;;;;;;;7.57;5.27;;;4.70;99.90;;;;;;5026737;28;20810;-61
2023/03/28 03:08:32;;;;;;;7.00;5.30;;;4.70;99.90;;;;;;5028374;28;20454;-61
2023/03/28 03:10:58;;;;;;;5.70;4.80;;;4.60;99.90;;;;;;5034793;28;20509;-61
2023/03/28 03:13:24;;;;;;;5.93;4.67;;;4.60;99.90;;;;;;5033972;28;20425;-61
2023/03/28 03:15:49;;;;;;;5.13;4.60;;;4.60;99.90;;;;;;5030474;28;20180;-61
2023/03/28 03:18:15;;;;;;;5.60;4.93;;;4.60;99.90;;;;;;5022151;28;20205;-61
2023/03/28 03:20:44;;;;;;;6.53;4.87;;;4.60;99.90;;;;;;5031240;28;20282;-61
2023/03/28 03:23:10;;;;;;;6.67;4.57;;;4.60;99.90;;;;;;5029308;28;20446;-61
2023/03/28 03:25:36;;;;;;;5.70;4.33;;;4.70;99.90;;;;;;5027710;28;20537;-61
2023/03/28 03:28:02;;;;;;;10.03;4.93;;;4.80;99.90;;;;;;5028699;28;20545;-61
2023/03/28 03:30:28;;;;;;;8.63;4.80;;;4.80;99.90;;;;;;5025900;28;20461;-61
2023/03/28 03:32:54;;;;;;;6.97;4.53;;;4.70;99.90;;;;;;5023909;28;20263;-61
2023/03/28 03:35:20;;;;;;;5.30;4.27;;;4.60;99.90;;;;;;5024210;28;20215;-61
2023/03/28 03:37:46;;;;;;;7.50;4.83;;;4.70;99.90;;;;;;5029034;28;20489;-61
2023/03/28 03:40:11;;;;;;;7.07;5.23;;;4.70;99.90;;;;;;5025591;28;20230;-61
2023/03/28 03:42:37;;;;;;;7.70;5.30;;;4.70;99.90;;;;;;5028709;28;20196;-61
2023/03/28 03:45:04;;;;;;;8.00;4.83;;;4.70;99.90;;;;;;5029306;28;20211;-61
2023/03/28 03:47:30;;;;;;;11.73;5.90;;;4.70;99.90;;;;;;5026093;28;20478;-61
2023/03/28 03:49:55;;;;;;;6.63;5.13;;;4.70;99.90;;;;;;5035240;28;20696;-61
2023/03/28 03:52:21;;;;;;;7.00;5.10;;;4.60;99.90;;;;;;5026176;28;20841;-61
2023/03/28 03:54:46;;;;;;;5.90;4.80;;;4.60;99.90;;;;;;5024834;28;20720;-61
2023/03/28 03:57:12;;;;;;;8.47;5.07;;;4.60;99.90;;;;;;5027499;28;20678;-61
2023/03/28 03:59:37;;;;;;;6.53;5.53;;;4.60;99.90;;;;;;5020747;28;20192;-61
2023/03/28 04:02:03;;;;;;;7.73;6.03;;;4.60;99.90;;;;;;5027304;28;20576;-61
2023/03/28 04:04:29;;;;;;;6.60;5.43;;;4.50;99.90;;;;;;5024937;28;20706;-61
2023/03/28 04:06:58;;;;;;;7.60;5.60;;;4.50;99.90;;;;;;5028205;28;20743;-61
2023/03/28 04:09:27;;;;;;;11.77;6.90;;;4.60;99.90;;;;;;5026640;28;20638;-61
2023/03/28 04:11:54;;;;;;;10.27;5.70;;;4.50;99.90;;;;;;5030593;28;20462;-61
2023/03/28 04:14:19;;;;;;;6.50;5.67;;;4.60;99.90;;;;;;5023130;28;20477;-61
2023/03/28 04:16:45;;;;;;;8.60;6.37;;;4.40;99.90;;;;;;5027325;28;20559;-61
2023/03/28 04:19:12;;;;;;;7.93;5.00;;;4.50;99.90;;;;;;5024673;28;21235;-61
2023/03/28 04:21:41;;;;;;;9.10;6.33;;;4.40;99.90;;;;;;5027779;28;20748;-60
2023/03/28 04:24:07;;;;;;;6.40;5.60;;;4.40;99.90;;;;;;5027453;28;20442;-61
2023/03/28 04:26:36;;;;;;;6.53;5.60;;;4.40;99.90;;;;;;5025275;28;20516;-61
2023/03/28 04:29:04;;;;;;;7.87;4.93;;;4.50;99.90;;;;;;5024047;28;20446;-60
2023/03/28 04:31:34;;;;;;;9.50;5.27;;;4.40;99.90;;;;;;5025994;28;20776;-60
2023/03/28 04:34:02;;;;;;;9.20;5.53;;;4.40;99.90;;;;;;5028549;28;20439;-60
2023/03/28 04:36:28;;;;;;;7.03;5.67;;;4.40;99.90;;;;;;5023158;28;21078;-61
2023/03/28 04:38:57;;;;;;;8.13;5.40;;;4.40;99.90;;;;;;5026176;28;20471;-60
2023/03/28 04:41:24;;;;;;;6.17;5.17;;;4.30;99.90;;;;;;5033167;28;20524;-60
2023/03/28 04:43:50;;;;;;;10.50;5.60;;;4.30;99.90;;;;;;5019221;28;20538;-60
2023/03/28 04:46:16;;;;;;;8.47;6.43;;;4.30;99.90;;;;;;5026524;28;20462;-60
2023/03/28 04:48:41;;;;;;;10.00;5.73;;;4.30;99.90;;;;;;5022177;28;20451;-60
2023/03/28 04:51:07;;;;;;;13.00;6.07;;;4.30;99.90;;;;;;5024174;28;20836;-59
2023/03/28 04:53:33;;;;;;;9.93;6.00;;;4.30;99.90;;;;;;5024581;28;20676;-59
2023/03/28 04:55:58;;;;;;;7.60;5.63;;;4.30;99.90;;;;;;5027994;28;20445;-60
2023/03/28 04:58:24;;;;;;;11.57;5.93;;;4.30;99.90;;;;;;5029787;28;20194;-60
2023/03/28 05:00:50;;;;;;;10.40;6.90;;;4.30;99.90;;;;;;5028038;28;20283;-59
2023/03/28 05:03:19;;;;;;;9.83;5.40;;;4.30;99.90;;;;;;5031396;28;20535;-60
2023/03/28 05:05:51;;;;;;;8.33;5.97;;;4.30;99.90;;;;;;5030472;28;20456;-60
2023/03/28 05:08:18;;;;;;;6.37;5.47;;;4.30;99.90;;;;;;5027098;28;20454;-60
2023/03/28 05:10:44;;;;;;;10.00;6.43;;;4.30;99.90;;;;;;5028803;28;20533;-60
2023/03/28 05:13:10;;;;;;;8.77;6.60;;;4.20;99.90;;;;;;5031879;28;20479;-60
2023/03/28 05:15:36;;;;;;;11.50;6.00;;;4.20;99.90;;;;;;5028678;28;21017;-59
2023/03/28 05:18:02;;;;;;;9.40;6.30;;;4.30;99.90;;;;;;5027328;28;20839;-60
2023/03/28 05:20:28;;;;;;;7.03;6.07;;;4.20;99.90;;;;;;5026668;28;20202;-59
2023/03/28 05:22:54;;;;;;;9.80;5.50;;;4.20;99.90;;;;;;5027235;28;20818;-59
2023/03/28 05:25:20;;;;;;;7.17;5.73;;;4.20;99.90;;;;;;5027951;28;20443;-60
2023/03/28 05:27:46;;;;;;;12.00;6.10;;;4.20;99.90;;;;;;5029629;28;20489;-59
2023/03/28 05:30:12;;;;;;;7.73;6.20;;;4.20;99.90;;;;;;5033821;28;20539;-59
2023/03/28 05:32:38;;;;;;;10.23;5.97;;;4.10;99.90;;;;;;5031415;28;20697;-59
2023/03/28 05:35:06;;;;;;;7.50;5.97;;;4.10;99.90;;;;;;5037200;28;20536;-59
2023/03/28 05:37:32;;;;;;;12.23;7.20;;;4.10;99.90;;;;;;5034110;28;20457;-59
2023/03/28 05:39:57;;;;;;;7.83;6.37;;;4.00;99.90;;;;;;5030814;28;20480;-59
2023/03/28 05:42:23;;;;;;;8.50;5.90;;;4.00;99.90;;;;;;5034504;28;20425;-59
2023/03/28 05:44:49;;;;;;;8.73;5.87;;;4.10;99.90;;;;;;5029189;28;20204;-59
2023/03/28 05:47:15;;;;;;;8.67;5.60;;;4.00;99.90;;;;;;5033799;28;20291;-59
2023/03/28 05:49:41;;;;;;;7.10;5.63;;;4.00;99.90;;;;;;5035230;28;20207;-59
2023/03/28 05:52:06;;;;;;;6.70;5.63;;;4.00;99.90;;;;;;5032241;28;20540;-59
2023/03/28 05:54:32;;;;;;;12.23;6.40;;;3.90;99.90;;;;;;5026828;28;21187;-60
2023/03/28 05:56:58;;;;;;;8.27;5.57;;;4.00;99.90;;;;;;5030088;28;20687;-60
2023/03/28 05:59:23;;;;;;;5.77;5.17;;;4.00;99.90;;;;;;5029432;28;20323;-60
2023/03/28 06:01:51;;;;;;;7.90;5.63;;;4.10;99.90;;;;;;5025903;28;20184;-60
2023/03/28 06:04:21;;;;;;;9.17;5.73;;;4.20;99.90;;;;;;5031540;28;20254;-60
2023/03/28 06:06:49;;;;;;;6.53;4.70;;;4.10;99.90;;;;;;5026867;28;20829;-60
2023/03/28 06:09:15;;;;;;;6.87;4.80;;;4.20;99.90;;;;;;5029935;28;20439;-60
2023/03/28 06:11:41;;;;;;;10.10;5.60;;;4.20;99.90;;;;;;5030049;28;20528;-60
2023/03/28 06:14:07;;;;;;;8.97;5.60;;;4.10;99.90;;;;;;5027292;28;20298;-60
2023/03/28 06:16:33;;;;;;;7.67;5.80;;;4.10;99.90;;;;;;5029651;28;20212;-60
2023/03/28 06:18:58;;;;;;;10.17;5.37;;;4.10;99.90;;;;;;5024163;28;20488;-60
2023/03/28 06:21:24;;;;;;;10.80;6.50;;;4.10;99.90;;;;;;5035816;28;20183;-60
2023/03/28 06:23:50;;;;;;;6.50;4.83;;;4.10;99.90;;;;;;5025688;28;20212;-60
2023/03/28 06:26:16;;;;;;;11.63;5.57;;;4.20;99.90;;;;;;5026002;28;20184;-59
2023/03/28 06:28:42;;;;;;;7.43;4.70;;;4.10;99.90;;;;;;5024768;28;20462;-59
2023/03/28 06:31:10;;;;;;;6.60;4.67;;;4.10;99.90;;;;;;5020841;28;21011;-59
2023/03/28 06:33:37;;;;;;;7.60;4.30;;;4.20;99.90;;;;;;5029893;28;20185;-59
2023/03/28 06:36:03;;;;;;;6.43;4.90;;;4.10;99.90;;;;;;5031125;28;20431;-59
2023/03/28 06:38:29;;;;;;;11.53;5.40;;;4.10;99.90;;;;;;5029629;28;21139;-59
2023/03/28 06:40:55;;;;;;;9.83;5.30;;;4.20;99.90;;;;;;5027182;28;20466;-59
2023/03/28 06:43:20;;;;;;;8.70;4.70;;;4.40;99.90;;;;;;5030819;28;20180;-59
2023/03/28 06:45:46;;;;;;;5.27;4.63;;;4.40;99.90;;;;;;5033514;28;20714;-59
2023/03/28 06:48:11;;;;;;;8.67;5.53;;;4.60;99.90;;;;;;5033688;28;20744;-59
2023/03/28 06:50:37;;;;;;;10.07;4.90;;;4.60;99.90;;;;;;5024892;28;20259;-59
2023/03/28 06:53:02;;;;;;;6.20;4.63;;;4.50;99.90;;;;;;5025352;28;20223;-59
2023/03/28 06:55:28;;;;;;;5.20;4.70;;;4.50;99.90;;;;;;5030414;28;20184;-60
2023/03/28 06:57:53;;;;;;;8.10;5.60;;;4.60;99.90;;;;;;5025715;28;20223;-60
2023/03/28 07:00:19;;;;;;;6.60;4.80;;;4.70;99.90;;;;;;5027297;28;20215;-60
2023/03/28 07:02:45;;;;;;;9.83;4.90;;;4.70;99.90;;;;;;5026348;28;20268;-60
2023/03/28 07:05:10;;;;;;;7.60;4.93;;;4.80;99.90;;;;;;5025339;28;20431;-60
2023/03/28 07:07:36;;;;;;;15.93;5.20;;;4.80;99.90;;;;;;5022646;28;20238;-60
2023/03/28 07:10:02;;;;;;;9.07;4.87;;;5.00;99.90;;;;;;5030550;28;20192;-59
2023/03/28 07:12:27;;;;;;;8.20;4.80;;;5.00;99.90;;;;;;5035182;28;20208;-60
2023/03/28 07:14:53;;;;;;;6.60;5.20;;;5.00;99.90;;;;;;5030689;28;20188;-59
2023/03/28 07:17:19;;;;;;;10.10;5.43;;;5.10;99.90;;;;;;5023132;28;20301;-59
2023/03/28 07:19:47;;;;;;;6.77;5.27;;;5.10;99.90;;;;;;5028507;28;20197;-60
2023/03/28 07:22:13;;;;;;;17.47;10.63;;;5.20;99.90;;;;;;5029355;28;20423;-60
2023/03/28 07:24:38;;;;;;;9.93;5.17;;;5.20;99.90;;;;;;5030909;28;20438;-60
2023/03/28 07:27:04;;;;;;;8.20;6.30;;;5.20;99.90;;;;;;5026070;28;21223;-60
2023/03/28 07:29:30;;;;;;;10.53;6.00;;;5.30;99.90;;;;;;5027291;28;20194;-60
2023/03/28 07:31:56;;;;;;;9.23;6.33;;;5.30;99.90;;;;;;5029963;28;21392;-61
2023/03/28 07:34:21;;;;;;;9.77;6.30;;;5.30;99.90;;;;;;5029319;28;20176;-61
2023/03/28 07:36:47;;;;;;;8.43;5.90;;;5.40;99.90;;;;;;5029582;28;20212;-62
2023/03/28 07:39:12;;;;;;;13.93;5.50;;;5.50;99.90;;;;;;5026648;28;20196;-62
2023/03/28 07:41:38;;;;;;;8.17;5.50;;;5.50;99.90;;;;;;5032751;28;20183;-61
2023/03/28 07:44:03;;;;;;;9.60;6.43;;;5.60;99.90;;;;;;5027930;28;20263;-62
2023/03/28 07:46:31;;;;;;;9.10;5.73;;;5.60;99.90;;;;;;5029363;28;20316;-61
2023/03/28 07:48:58;;;;;;;9.87;7.10;;;5.60;99.90;;;;;;5022167;28;20176;-61
2023/03/28 07:51:24;;;;;;;13.67;6.20;;;5.70;99.90;;;;;;5027953;28;20473;-60
2023/03/28 07:53:50;;;;;;;10.60;5.53;;;5.60;99.90;;;;;;5029118;28;20912;-60
2023/03/28 07:56:16;;;;;;;8.13;5.70;;;5.70;99.90;;;;;;5028977;28;20429;-60
2023/03/28 07:58:41;;;;;;;8.33;6.07;;;5.70;99.90;;;;;;5021434;28;20200;-60
2023/03/28 08:01:10;;;;;;;7.43;5.80;;;5.80;99.90;;;;;;5028541;28;20481;-59
2023/03/28 08:03:36;;;;;;;6.60;5.70;;;5.80;99.90;;;;;;5031805;28;20280;-59
2023/03/28 08:06:07;;;;;;;8.40;5.50;;;5.70;99.90;;;;;;5030737;28;20477;-60
2023/03/28 08:08:33;;;;;;;6.67;5.50;;;5.90;99.90;;;;;;5028414;28;20218;-59
2023/03/28 08:10:59;;;;;;;7.77;5.37;;;5.90;99.90;;;;;;5031053;28;20972;-59
2023/03/28 08:13:24;;;;;;;7.30;5.27;;;6.10;99.90;;;;;;5036177;28;20555;-59
2023/03/28 08:15:53;;;;;;;9.03;5.83;;;6.10;99.90;;;;;;5028753;28;20432;-60
2023/03/28 08:18:20;;;;;;;7.50;5.40;;;6.10;99.90;;;;;;5035909;28;20437;-60
2023/03/28 08:20:50;;;;;;;6.47;4.80;;;6.10;99.90;;;;;;5032942;28;20442;-60
2023/03/28 08:23:16;;;;;;;15.63;7.17;;;6.20;99.90;;;;;;5033770;28;20486;-59
2023/03/28 08:25:43;;;;;;;12.30;6.37;;;6.30;99.90;;;;;;5024708;28;20427;-60
2023/03/28 08:28:08;;;;;;;7.20;5.40;;;6.40;99.90;;;;;;5026938;28;20785;-60
2023/03/28 08:30:35;;;;;;;4.50;4.03;;;6.50;99.90;;;;;;5029471;28;20560;-60
2023/03/28 08:33:03;;;;;;;8.60;4.90;;;6.60;99.90;;;;;;5023638;28;20249;-60
2023/03/28 08:35:29;;;;;;;7.57;4.57;;;6.60;99.90;;;;;;5031687;28;20508;-60
2023/03/28 08:37:55;;;;;;;5.57;4.73;;;6.60;99.90;;;;;;5036407;28;20828;-60
2023/03/28 08:40:24;;;;;;;7.00;5.07;;;6.60;99.90;;;;;;5043545;28;20507;-60
2023/03/28 08:43:01;;;;;;;8.43;6.10;;;6.80;99.90;;;;;;5033411;28;20230;-60
2023/03/28 08:45:49;;;;;;;5.70;5.10;;;6.90;99.90;;;;;;5034428;28;20410;-60
2023/03/28 08:48:18;;;;;;;7.30;5.73;;;6.90;99.90;;;;;;5036035;28;20492;-59
2023/03/28 08:51:21;;;;;;;7.20;5.97;;;6.90;99.90;;;;;;5032937;28;20474;-59
2023/03/28 08:53:59;;;;;;;10.03;5.10;;;6.90;99.90;;;;;;5033107;28;20441;-59
2023/03/28 08:56:26;;;;;;;11.83;5.53;;;6.90;99.90;;;;;;5036992;28;21239;-59
2023/03/28 08:59:12;;;;;;;7.73;5.43;;;7.00;99.90;;;;;;5034629;28;20426;-59
2023/03/28 09:01:38;;;;;;;6.13;5.20;;;7.00;99.90;;;;;;5038312;28;20437;-59
2023/03/28 09:04:04;;;;;;;5.43;4.93;;;7.20;99.90;;;;;;5038467;28;20419;-59
2023/03/28 09:06:44;;;;;;;6.30;4.40;;;7.20;99.90;;;;;;5035559;28;20936;-59
2023/03/28 09:09:33;;;;;;;6.60;4.40;;;7.30;99.90;;;;;;5037710;28;21161;-61
2023/03/28 09:12:07;;;;;;;7.20;4.10;;;7.30;99.90;;;;;;5043607;28;20477;-60
2023/03/28 09:14:56;;;;;;;5.93;4.70;;;7.20;99.90;;;;;;5040522;28;20420;-59
2023/03/28 09:17:36;;;;;;;5.33;4.13;;;7.10;99.90;;;;;;5041542;28;20534;-60
2023/03/28 09:20:34;;;;;;;7.67;4.63;;;7.10;99.90;;;;;;5040071;28;20435;-61
2023/03/28 09:23:21;;;;;;;7.30;4.80;;;7.20;99.90;;;;;;5038535;28;20427;-60
2023/03/28 09:25:56;;;;;;;5.97;4.13;;;7.20;99.90;;;;;;5033513;28;20421;-60
2023/03/28 09:28:37;;;;;;;7.43;3.50;;;7.30;99.90;;;;;;5039638;28;20441;-60
2023/03/28 09:31:09;;;;;;;6.20;4.20;;;7.40;99.90;;;;;;5031652;28;20792;-60
2023/03/28 09:33:39;;;;;;;10.17;4.70;;;7.50;99.90;;;;;;5033417;28;20446;-61
2023/03/28 09:36:12;;;;;;;6.63;4.60;;;7.60;99.90;;;;;;5032858;28;20437;-61
2023/03/28 09:38:53;;;;;;;7.10;4.50;;;7.70;99.90;;;;;;5035910;28;20445;-61
2023/03/28 09:41:26;;;;;;;6.73;4.60;;;7.90;99.90;;;;;;5033307;28;20471;-61
2023/03/28 09:43:59;;;;;;;6.90;3.67;;;7.80;99.90;;;;;;5034374;28;20423;-61
2023/03/28 09:46:52;;;;;;;7.50;4.63;;;8.00;99.90;;;;;;5032185;28;20474;-61
2023/03/28 09:49:23;;;;;;;6.90;3.93;;;8.10;99.90;;;;;;5030080;28;20431;-60
2023/03/28 09:51:51;;;;;;;8.60;4.43;;;8.30;99.90;;;;;;5030849;28;20481;-60
2023/03/28 09:54:27;;;;;;;10.50;3.40;;;8.30;99.90;;;;;;5027304;28;20438;-59
2023/03/28 09:56:58;;;;;;;5.93;4.33;;;8.20;99.90;;;;;;5027659;28;20430;-61
2023/03/28 09:59:26;;;;;;;8.87;3.83;;;8.30;99.90;;;;;;5028396;28;20781;-61
2023/03/28 10:01:53;;;;;;;5.13;3.73;;;8.40;99.90;;;;;;5025562;28;20983;-60
2023/03/28 10:04:36;;;;;;;7.27;4.70;;;8.40;99.90;;;;;;5034151;28;20901;-61
2023/03/28 10:07:10;;;;;;;6.93;4.60;;;8.40;99.90;;;;;;5033157;28;20538;-61
2023/03/28 10:09:56;;;;;;;5.67;4.53;;;8.60;99.90;;;;;;5032480;28;20430;-60
2023/03/28 10:12:35;;;;;;;5.80;4.13;;;8.80;99.90;;;;;;5027682;28;20549;-61
2023/03/28 10:15:01;;;;;;;6.93;3.60;;;8.70;99.90;;;;;;5023395;28;21992;-61
2023/03/28 10:17:29;;;;;;;6.83;4.10;;;8.90;99.90;;;;;;5028853;28;20541;-61
2023/03/28 10:20:00;;;;;;;8.83;4.47;;;9.00;99.90;;;;;;5033650;28;20521;-61
2023/03/28 10:22:34;;;;;;;5.50;4.60;;;8.80;99.90;;;;;;5030863;28;20439;-61
2023/03/28 10:25:03;;;;;;;6.80;4.00;;;9.00;99.90;;;;;;5029011;28;20430;-61
2023/03/28 10:27:33;;;;;;;4.93;3.77;;;9.10;99.90;;;;;;5026353;28;20492;-61
2023/03/28 10:30:08;;;;;;;4.87;3.00;;;9.00;99.90;;;;;;5028538;28;20788;-61
2023/03/28 10:32:33;;;;;;;9.97;6.63;;;9.00;99.90;;;;;;5025893;28;20612;-61
2023/03/28 10:35:06;;;;;;;4.33;3.07;;;9.10;99.90;;;;;;5026654;28;20920;-61
2023/03/28 10:37:33;;;;;;;5.40;3.40;;;9.30;97.50;;;;;;5033020;28;20219;-61
2023/03/28 10:40:21;;;;;;;5.60;3.17;;;9.40;96.40;;;;;;5027195;28;20424;-61
2023/03/28 10:42:50;;;;;;;9.30;4.63;;;9.50;97.30;;;;;;5029381;28;20444;-61
2023/03/28 10:45:25;;;;;;;12.07;8.07;;;9.40;99.30;;;;;;5027154;28;20542;-61
2023/03/28 10:47:55;;;;;;;5.90;4.67;;;9.70;99.60;;;;;;5024036;28;20446;-61
2023/03/28 10:50:34;;;;;;;8.13;3.43;;;10.00;96.80;;;;;;5027720;28;20644;-61
2023/03/28 10:53:21;;;;;;;3.10;2.47;;;10.00;91.80;;;;;;5031445;28;20449;-60
2023/03/28 10:56:22;;;;;;;8.50;3.80;;;10.10;87.80;;;;;;5031365;28;20569;-61
2023/03/28 10:59:11;;;;;;;3.30;3.00;;;10.20;91.00;;;;;;5035620;28;20479;-61
2023/03/28 11:01:53;;;;;;;4.30;3.50;;;10.10;91.30;;;;;;5030718;28;20454;-61
2023/03/28 11:04:28;;;;;;;5.93;3.47;;;10.20;91.00;;;;;;5011837;28;20443;-61
2023/03/28 11:07:02;;;;;;;9.20;3.90;;;10.20;90.70;;;;;;5029329;28;20461;-61
2023/03/28 11:09:45;;;;;;;4.67;3.60;;;10.50;91.10;;;;;;5024513;28;20451;-61
2023/03/28 11:12:41;;;;;;;6.73;3.80;;;10.50;88.10;;;;;;5036331;28;20482;-61
2023/03/28 11:15:23;;;;;;;9.33;3.60;;;10.60;90.20;;;;;;5023383;28;20456;-61
2023/03/28 11:18:08;;;;;;;5.50;3.37;;;10.80;90.00;;;;;;5029101;28;20501;-62
2023/03/28 11:20:59;;;;;;;6.67;3.87;;;10.70;88.80;;;;;;5023891;28;20553;-61
2023/03/28 11:23:36;;;;;;;4.93;3.63;;;11.00;88.00;;;;;;5025795;28;20445;-61
2023/03/28 11:26:11;;;;;;;3.63;3.03;;;11.10;85.60;;;;;;5023371;28;20517;-61
2023/03/28 11:28:48;;;;;;;5.10;3.60;;;10.90;85.50;;;;;;5030448;28;20489;-61
2023/03/28 11:31:19;;;;;;;7.60;3.80;;;11.30;84.90;;;;;;5024633;28;20545;-61
2023/03/28 11:34:03;;;;;;;5.93;4.60;;;11.30;84.30;;;;;;5029608;28;21109;-61
2023/03/28 11:36:49;;;;;;;5.63;4.10;;;11.30;84.80;;;;;;5026590;28;20454;-61
2023/03/28 11:39:21;;;;;;;5.67;3.50;;;11.40;84.40;;;;;;5028246;28;20980;-61
2023/03/28 11:41:49;;;;;;;3.70;3.10;;;11.50;82.50;;;;;;5022126;28;20478;-62
2023/03/28 11:44:43;;;;;;;5.33;3.83;;;11.60;82.90;;;;;;5023895;28;20444;-61
2023/03/28 11:47:21;;;;;;;4.43;3.17;;;11.80;83.30;;;;;;5028441;28;20813;-61
2023/03/28 11:49:57;;;;;;;3.47;3.07;;;12.10;81.50;;;;;;5022148;28;20521;-62
2023/03/28 11:52:50;;;;;;;4.13;3.67;;;12.20;79.50;;;;;;5025732;28;20549;-60
2023/03/28 11:55:21;;;;;;;5.00;3.83;;;12.10;76.50;;;;;;5031131;28;20496;-61
2023/03/28 11:57:52;;;;;;;5.63;3.80;;;12.00;75.40;;;;;;5030145;28;20442;-61
2023/03/28 12:00:23;;;;;;;9.60;4.27;;;11.90;75.30;;;;;;5025037;28;20435;-61
2023/03/28 12:03:02;;;;;;;3.70;3.30;;;12.10;76.00;;;;;;5025705;28;20431;-63
2023/03/28 12:05:45;;;;;;;4.00;3.33;;;12.10;73.70;;;;;;5026000;28;20530;-63
2023/03/28 12:08:27;;;;;;;4.07;3.60;;;12.50;75.90;;;;;;5023347;28;20482;-61
2023/03/28 12:11:00;;;;;;;5.13;3.20;;;13.80;75.80;;;;;;5022233;28;20431;-62
2023/03/28 12:13:44;;;;;;;4.17;3.43;;;15.00;68.70;;;;;;5024304;28;20473;-63
2023/03/28 12:16:19;;;;;;;6.37;3.73;;;16.50;64.50;;;;;;5025751;28;20557;-63
2023/03/28 12:18:50;;;;;;;6.80;3.43;;;17.50;59.70;;;;;;5027990;28;20881;-65
2023/03/28 12:21:40;;;;;;;6.20;3.80;;;18.90;58.30;;;;;;5023440;28;20474;-64
2023/03/28 12:24:24;;;;;;;5.37;3.07;;;19.90;54.30;;;;;;5027007;28;20434;-63
2023/03/28 12:27:15;;;;;;;4.83;3.53;;;20.40;51.00;;;;;;5030283;28;20459;-63
2023/03/28 12:29:56;;;;;;;4.40;3.50;;;20.90;49.40;;;;;;5025339;28;20453;-62
2023/03/28 12:32:52;;;;;;;8.43;3.83;;;21.60;48.90;;;;;;5023135;28;21061;-62
2023/03/28 12:35:51;;;;;;;7.63;3.33;;;21.70;43.50;;;;;;5023219;28;20434;-62
2023/03/28 12:38:47;;;;;;;8.27;3.33;;;21.60;44.50;;;;;;5030050;28;20474;-62
2023/03/28 12:41:16;;;;;;;4.03;3.20;;;22.50;44.60;;;;;;5022205;28;20435;-63
2023/03/28 12:44:12;;;;;;;5.70;3.30;;;23.00;41.90;;;;;;5036034;28;20430;-62
2023/03/28 12:46:52;;;;;;;5.87;3.83;;;23.90;42.50;;;;;;5032834;28;20454;-63
2023/03/28 12:49:51;;;;;;;6.90;3.50;;;23.60;40.30;;;;;;5032632;28;20496;-62
2023/03/28 12:52:37;;;;;;;5.07;3.47;;;23.40;39.20;;;;;;5027459;28;20469;-62
2023/03/28 12:55:06;;;;;;;5.60;3.50;;;23.80;39.80;;;;;;5025811;28;20966;-63
2023/03/28 12:57:39;;;;;;;4.33;3.40;;;23.90;38.30;;;;;;5032817;28;20459;-62
2023/03/28 13:00:05;;;;;;;4.80;3.20;;;24.00;37.60;;;;;;5022974;28;20441;-62
2023/03/28 13:02:38;;;;;;;7.53;4.40;;;23.70;37.60;;;;;;5024333;28;20422;-62
2023/03/28 13:05:09;;;;;;;5.80;3.30;;;23.80;36.50;;;;;;5023697;28;20435;-62
2023/03/28 13:08:03;;;;;;;4.93;3.90;;;23.50;37.20;;;;;;5029880;28;20825;-62
2023/03/28 13:10:52;;;;;;;4.80;3.60;;;23.20;37.70;;;;;;5026564;28;20438;-62
2023/03/28 13:13:33;;;;;;;5.17;3.33;;;22.60;37.20;;;;;;5026928;28;20532;-63
2023/03/28 13:16:25;;;;;;;6.07;3.87;;;22.90;36.30;;;;;;5024549;28;20446;-62
2023/03/28 13:19:08;;;;;;;5.60;3.20;;;22.50;37.20;;;;;;5026426;28;20469;-62